Time;durP1;ratioP1;P1;durP2;ratioP2;P2;SDS_P1;SDS_P2;PMS_P1;PMS_P2;Temp;Humidity;BMP_temperature;BMP_pressure;BME280_temperature;BME280_humidity;BME280_pressure;Samples;Min_cycle;Max_cycle;Signal;HPM_P1;HPM_P2
2024/02/26 00:01:00;;;;;;;13.67;7.30;;;2.60;99.90;;;;;;5040713;28;20191;-53
2024/02/26 00:03:26;;;;;;;14.70;7.40;;;2.60;99.90;;;;;;5040568;28;20230;-55
2024/02/26 00:05:51;;;;;;;15.33;7.80;;;2.60;99.90;;;;;;5040953;28;20192;-53
2024/02/26 00:08:17;;;;;;;16.40;7.57;;;2.60;99.90;;;;;;5033854;28;20213;-51
2024/02/26 00:10:42;;;;;;;15.50;7.80;;;2.60;99.90;;;;;;5047006;28;20382;-52
2024/02/26 00:13:08;;;;;;;21.00;8.83;;;2.60;99.90;;;;;;5032837;28;20219;-51
2024/02/26 00:15:35;;;;;;;18.63;8.60;;;2.70;99.90;;;;;;5043895;28;20194;-54
2024/02/26 00:18:01;;;;;;;16.90;8.13;;;2.70;99.90;;;;;;5043747;28;20184;-50
2024/02/26 00:20:26;;;;;;;15.80;8.33;;;2.70;99.90;;;;;;5040405;28;20198;-51
2024/02/26 00:22:52;;;;;;;20.80;8.27;;;2.80;99.90;;;;;;5040483;28;20294;-53
2024/02/26 00:25:18;;;;;;;19.77;8.53;;;2.80;99.90;;;;;;5050467;28;20269;-52
2024/02/26 00:27:44;;;;;;;16.70;8.43;;;2.90;99.90;;;;;;5043191;28;20183;-54
2024/02/26 00:30:10;;;;;;;20.67;9.13;;;3.00;99.90;;;;;;5043474;28;20246;-54
2024/02/26 00:32:35;;;;;;;17.27;8.27;;;3.00;99.90;;;;;;5038867;28;20231;-53
2024/02/26 00:35:01;;;;;;;16.50;8.00;;;3.00;99.90;;;;;;5048311;28;20184;-50
2024/02/26 00:37:26;;;;;;;17.53;8.27;;;3.00;99.90;;;;;;5034729;28;20650;-51
2024/02/26 00:39:53;;;;;;;16.83;8.20;;;3.00;99.90;;;;;;5045122;28;20283;-53
2024/02/26 00:42:19;;;;;;;19.53;8.67;;;2.90;99.90;;;;;;5039742;28;20223;-56
2024/02/26 00:44:45;;;;;;;17.20;7.43;;;3.00;99.90;;;;;;5037887;28;20203;-54
2024/02/26 00:47:10;;;;;;;16.90;7.40;;;3.00;99.90;;;;;;5033638;28;20250;-51
2024/02/26 00:49:37;;;;;;;16.93;7.43;;;3.00;99.90;;;;;;5031523;28;20218;-55
2024/02/26 00:52:03;;;;;;;15.13;7.23;;;3.00;99.90;;;;;;5039537;28;20203;-52
2024/02/26 00:54:28;;;;;;;13.37;7.17;;;3.00;99.90;;;;;;5046457;28;20527;-53
2024/02/26 00:56:54;;;;;;;18.93;8.30;;;2.90;99.90;;;;;;5030522;28;20186;-58
2024/02/26 00:59:19;;;;;;;15.70;8.10;;;3.00;99.90;;;;;;5030892;28;20215;-54
2024/02/26 01:01:45;;;;;;;16.23;7.43;;;2.90;99.90;;;;;;5030929;28;20303;-54
2024/02/26 01:04:11;;;;;;;18.80;8.53;;;2.90;99.90;;;;;;5031161;28;20195;-52
2024/02/26 01:06:37;;;;;;;18.90;8.47;;;3.00;99.90;;;;;;5035264;28;20191;-52
2024/02/26 01:09:02;;;;;;;21.57;8.57;;;3.00;99.90;;;;;;5033837;28;20270;-53
2024/02/26 01:11:28;;;;;;;18.80;8.47;;;3.00;99.90;;;;;;5047380;28;20187;-54
2024/02/26 01:13:56;;;;;;;17.40;7.57;;;3.00;99.90;;;;;;5038873;28;20191;-51
2024/02/26 01:16:22;;;;;;;17.13;8.83;;;3.00;99.90;;;;;;5030634;28;20188;-51
2024/02/26 01:18:48;;;;;;;15.97;7.87;;;3.00;99.90;;;;;;5036561;28;20194;-54
2024/02/26 01:21:14;;;;;;;15.93;7.57;;;3.00;99.90;;;;;;5032554;28;20196;-53
2024/02/26 01:23:40;;;;;;;16.33;7.10;;;3.00;99.90;;;;;;5030857;28;20196;-53
2024/02/26 01:26:05;;;;;;;15.73;7.33;;;3.00;99.90;;;;;;5030494;28;20674;-52
2024/02/26 01:28:31;;;;;;;14.23;7.37;;;3.10;99.90;;;;;;5015876;28;20191;-56
2024/02/26 01:30:56;;;;;;;17.27;8.03;;;3.20;99.90;;;;;;5043074;28;20191;-53
2024/02/26 01:33:22;;;;;;;15.57;7.20;;;3.20;99.90;;;;;;5038766;28;20211;-52
2024/02/26 01:35:48;;;;;;;16.60;7.07;;;3.20;99.90;;;;;;5030547;28;20180;-54
2024/02/26 01:38:13;;;;;;;15.97;7.50;;;3.20;99.90;;;;;;5031162;28;20179;-54
2024/02/26 01:40:39;;;;;;;14.30;7.00;;;3.30;99.90;;;;;;5037271;28;20183;-53
2024/02/26 01:43:04;;;;;;;12.40;6.60;;;3.30;99.90;;;;;;5038465;28;20207;-55
2024/02/26 01:45:30;;;;;;;15.13;7.30;;;3.30;99.90;;;;;;5029673;28;20195;-55
2024/02/26 01:47:56;;;;;;;15.50;8.07;;;3.30;99.90;;;;;;5029910;28;20373;-56
2024/02/26 01:50:22;;;;;;;14.60;7.17;;;3.30;99.90;;;;;;5038360;28;20560;-53
2024/02/26 01:52:50;;;;;;;15.17;7.30;;;3.30;99.90;;;;;;5030193;28;20207;-54
2024/02/26 01:55:18;;;;;;;13.17;6.87;;;3.30;99.90;;;;;;5039877;28;20187;-55
2024/02/26 01:57:45;;;;;;;17.83;7.47;;;3.30;99.90;;;;;;5043744;28;20663;-56
2024/02/26 02:00:13;;;;;;;15.43;7.30;;;3.40;99.90;;;;;;5029891;28;20204;-56
2024/02/26 02:02:39;;;;;;;17.13;7.70;;;3.40;99.90;;;;;;5034920;28;20709;-52
2024/02/26 02:05:07;;;;;;;14.70;7.10;;;3.40;99.90;;;;;;5041794;28;20225;-52
2024/02/26 02:07:34;;;;;;;12.63;6.93;;;3.40;99.90;;;;;;5049583;28;20214;-52
2024/02/26 02:10:00;;;;;;;13.83;7.20;;;3.40;99.90;;;;;;5042149;28;20229;-54
2024/02/26 02:12:26;;;;;;;18.90;7.07;;;3.50;99.90;;;;;;5037830;28;20200;-52
2024/02/26 02:14:52;;;;;;;17.97;7.20;;;3.50;99.90;;;;;;5044808;28;20203;-53
2024/02/26 02:17:17;;;;;;;14.77;6.53;;;3.60;99.90;;;;;;5030696;28;20207;-56
2024/02/26 02:19:43;;;;;;;15.47;6.40;;;3.50;99.90;;;;;;5029793;28;20279;-55
2024/02/26 02:22:08;;;;;;;13.83;6.70;;;3.60;99.90;;;;;;5037740;28;20207;-53
2024/02/26 02:24:34;;;;;;;12.20;6.10;;;3.60;99.90;;;;;;5037956;28;20542;-53
2024/02/26 02:26:59;;;;;;;16.57;6.90;;;3.60;99.90;;;;;;5029447;28;20593;-54
2024/02/26 02:29:27;;;;;;;12.27;6.10;;;3.60;99.90;;;;;;5029238;28;20219;-51
2024/02/26 02:31:53;;;;;;;13.37;5.40;;;3.60;99.90;;;;;;5029790;28;20227;-52
2024/02/26 02:34:19;;;;;;;8.20;4.30;;;3.60;99.90;;;;;;5029456;28;20746;-54
2024/02/26 02:36:49;;;;;;;8.83;4.83;;;3.60;99.90;;;;;;5043314;28;20266;-53
2024/02/26 02:39:15;;;;;;;12.27;5.57;;;3.70;99.90;;;;;;5041063;28;20195;-51
2024/02/26 02:41:41;;;;;;;12.20;6.03;;;3.70;99.90;;;;;;5036060;28;20207;-54
2024/02/26 02:44:06;;;;;;;14.13;6.17;;;3.70;99.90;;;;;;5037637;28;20264;-53
2024/02/26 02:46:33;;;;;;;11.57;5.90;;;3.70;99.90;;;;;;5037249;28;20192;-54
2024/02/26 02:48:59;;;;;;;11.13;5.47;;;3.70;99.90;;;;;;5028934;28;20207;-50
2024/02/26 02:51:24;;;;;;;11.47;6.30;;;3.70;99.90;;;;;;5029184;28;20198;-52
2024/02/26 02:53:50;;;;;;;12.13;6.03;;;3.70;99.90;;;;;;5029361;28;20267;-52
2024/02/26 02:56:15;;;;;;;10.23;5.33;;;3.80;99.90;;;;;;5038145;28;20187;-52
2024/02/26 02:58:41;;;;;;;11.77;5.77;;;3.70;99.90;;;;;;5041300;28;20249;-53
2024/02/26 03:01:06;;;;;;;15.30;6.20;;;3.70;99.90;;;;;;5033575;28;20200;-54
2024/02/26 03:03:33;;;;;;;9.77;4.73;;;3.70;99.90;;;;;;5041169;28;20215;-51
2024/02/26 03:05:58;;;;;;;8.70;4.13;;;3.70;99.90;;;;;;5040574;28;20178;-53
2024/02/26 03:08:25;;;;;;;8.87;2.90;;;3.70;99.90;;;;;;5044287;28;20191;-52
2024/02/26 03:10:51;;;;;;;7.40;3.10;;;3.80;99.90;;;;;;5045097;28;20180;-54
2024/02/26 03:13:17;;;;;;;6.10;3.00;;;3.90;99.90;;;;;;5018609;28;20212;-51
2024/02/26 03:15:42;;;;;;;6.40;3.60;;;3.90;99.90;;;;;;5039610;28;20184;-50
2024/02/26 03:18:08;;;;;;;10.20;4.13;;;3.90;99.90;;;;;;5040578;28;20184;-52
2024/02/26 03:20:33;;;;;;;8.33;4.17;;;3.90;99.90;;;;;;5045302;28;20179;-50
2024/02/26 03:22:59;;;;;;;5.47;2.80;;;3.90;99.90;;;;;;5045344;28;20212;-53
2024/02/26 03:25:24;;;;;;;4.53;2.50;;;3.90;99.90;;;;;;5043698;28;20202;-51
2024/02/26 03:27:50;;;;;;;4.43;2.43;;;3.90;99.90;;;;;;5052079;28;20742;-51
2024/02/26 03:30:16;;;;;;;7.90;2.87;;;3.90;99.90;;;;;;5034695;28;20802;-51
2024/02/26 03:32:41;;;;;;;4.87;2.70;;;4.00;99.90;;;;;;5037777;28;20195;-51
2024/02/26 03:35:08;;;;;;;9.47;3.20;;;4.00;99.90;;;;;;5043923;28;20225;-56
2024/02/26 03:37:33;;;;;;;6.40;3.07;;;4.00;99.90;;;;;;5040393;28;20242;-51
2024/02/26 03:40:00;;;;;;;5.63;3.00;;;4.00;99.90;;;;;;5032787;28;20585;-54
2024/02/26 03:42:26;;;;;;;4.97;2.93;;;4.10;99.90;;;;;;5035408;28;20239;-55
2024/02/26 03:44:52;;;;;;;4.63;2.40;;;4.10;99.90;;;;;;5044258;28;20662;-53
2024/02/26 03:47:18;;;;;;;6.70;3.30;;;4.00;99.90;;;;;;5041740;28;20192;-51
2024/02/26 03:49:44;;;;;;;4.13;2.40;;;3.90;99.90;;;;;;5032569;28;20222;-52
2024/02/26 03:52:10;;;;;;;5.40;2.13;;;3.90;99.90;;;;;;5032249;28;20207;-53
2024/02/26 03:54:35;;;;;;;3.20;1.93;;;4.00;99.90;;;;;;5032378;28;20195;-56
2024/02/26 03:57:01;;;;;;;5.00;2.20;;;4.10;99.90;;;;;;5031704;28;20694;-55
2024/02/26 03:59:26;;;;;;;4.07;2.27;;;4.10;99.90;;;;;;5040404;28;20187;-54
2024/02/26 04:01:52;;;;;;;5.57;2.03;;;4.10;99.90;;;;;;5038675;28;20254;-54
2024/02/26 04:04:17;;;;;;;5.00;1.90;;;4.10;99.90;;;;;;5042118;28;20237;-54
2024/02/26 04:06:46;;;;;;;4.60;2.07;;;4.10;99.90;;;;;;5032064;28;20199;-51
2024/02/26 04:09:14;;;;;;;4.27;1.97;;;4.10;99.90;;;;;;5031642;28;20233;-54
2024/02/26 04:11:40;;;;;;;5.40;2.40;;;4.10;99.90;;;;;;5044912;28;20253;-54
2024/02/26 04:14:08;;;;;;;4.13;1.77;;;4.20;99.90;;;;;;5051865;28;20199;-59
2024/02/26 04:16:34;;;;;;;3.10;1.70;;;4.20;99.90;;;;;;5039690;28;20600;-57
2024/02/26 04:18:59;;;;;;;5.00;2.30;;;4.20;99.90;;;;;;5031595;28;20195;-55
2024/02/26 04:21:25;;;;;;;3.47;2.00;;;4.10;99.90;;;;;;5039914;28;20745;-54
2024/02/26 04:23:51;;;;;;;4.90;2.30;;;4.20;99.90;;;;;;5032123;28;20207;-52
2024/02/26 04:26:16;;;;;;;3.13;1.90;;;4.20;99.90;;;;;;5041510;28;20248;-53
2024/02/26 04:28:42;;;;;;;2.20;1.60;;;4.20;99.90;;;;;;5037867;28;20215;-54
2024/02/26 04:31:07;;;;;;;3.50;1.97;;;4.20;99.90;;;;;;5031956;28;20192;-55
2024/02/26 04:33:34;;;;;;;4.53;2.03;;;4.20;99.90;;;;;;5039457;28;20196;-55
2024/02/26 04:36:00;;;;;;;4.10;2.37;;;4.20;99.90;;;;;;5031397;28;20176;-58
2024/02/26 04:38:26;;;;;;;5.83;2.23;;;4.20;99.90;;;;;;5031040;28;20215;-53
2024/02/26 04:40:51;;;;;;;5.07;1.90;;;4.20;99.90;;;;;;5039930;28;20184;-56
2024/02/26 04:43:18;;;;;;;3.13;1.73;;;4.30;99.90;;;;;;5039430;28;20223;-55
2024/02/26 04:45:43;;;;;;;4.93;1.70;;;4.20;99.90;;;;;;5036713;28;20191;-53
2024/02/26 04:48:09;;;;;;;6.33;2.50;;;4.30;99.90;;;;;;5042029;28;20188;-54
2024/02/26 04:50:34;;;;;;;6.90;3.67;;;4.20;99.90;;;;;;5017462;28;20214;-56
2024/02/26 04:53:00;;;;;;;8.40;2.70;;;4.20;99.90;;;;;;5025811;28;20262;-54
2024/02/26 04:55:25;;;;;;;3.97;2.20;;;4.20;99.90;;;;;;5042226;28;20213;-56
2024/02/26 04:57:51;;;;;;;5.77;2.43;;;4.20;99.90;;;;;;5036555;28;20270;-54
2024/02/26 05:00:17;;;;;;;5.47;2.50;;;4.30;99.90;;;;;;5039309;28;20218;-56
2024/02/26 05:02:42;;;;;;;4.87;2.10;;;4.30;99.90;;;;;;5031255;28;20293;-56
2024/02/26 05:05:12;;;;;;;5.47;2.90;;;4.30;99.90;;;;;;5031594;28;20675;-51
2024/02/26 05:07:42;;;;;;;6.40;2.60;;;4.40;99.90;;;;;;5043370;28;20206;-51
2024/02/26 05:10:07;;;;;;;4.17;2.47;;;4.40;99.90;;;;;;5034074;28;20583;-52
2024/02/26 05:12:35;;;;;;;4.53;2.30;;;4.40;99.90;;;;;;5039254;28;20211;-51
2024/02/26 05:15:02;;;;;;;3.83;2.07;;;4.40;99.90;;;;;;5046713;28;20194;-53
2024/02/26 05:17:27;;;;;;;3.87;2.30;;;4.40;99.90;;;;;;5030601;28;20180;-54
2024/02/26 05:19:53;;;;;;;3.27;1.73;;;4.40;99.90;;;;;;5030181;28;20188;-53
2024/02/26 05:22:19;;;;;;;3.40;1.90;;;4.40;99.90;;;;;;5029087;28;20268;-56
2024/02/26 05:24:44;;;;;;;3.27;1.90;;;4.50;99.90;;;;;;5030734;28;20196;-52
2024/02/26 05:27:10;;;;;;;5.30;2.50;;;4.50;99.90;;;;;;5030028;28;20195;-53
2024/02/26 05:29:36;;;;;;;7.13;2.47;;;4.50;99.90;;;;;;5030476;28;20610;-51
2024/02/26 05:32:01;;;;;;;3.20;1.70;;;4.50;99.90;;;;;;5038768;28;20579;-52
2024/02/26 05:34:27;;;;;;;4.00;2.20;;;4.50;99.90;;;;;;5038556;28;20191;-53
2024/02/26 05:36:52;;;;;;;9.30;2.57;;;4.50;99.90;;;;;;5044730;28;20643;-51
2024/02/26 05:39:19;;;;;;;6.83;2.70;;;4.50;99.90;;;;;;5032271;28;20653;-52
2024/02/26 05:41:44;;;;;;;4.10;2.40;;;4.50;99.90;;;;;;5038739;28;20622;-51
2024/02/26 05:44:11;;;;;;;6.97;2.67;;;4.60;99.90;;;;;;5038366;28;20210;-53
2024/02/26 05:46:37;;;;;;;4.00;2.47;;;4.50;99.90;;;;;;5038524;28;20222;-52
2024/02/26 05:49:02;;;;;;;5.23;2.40;;;4.60;99.90;;;;;;5045640;28;20297;-53
2024/02/26 05:51:28;;;;;;;6.97;2.70;;;4.60;99.90;;;;;;5047076;28;20192;-54
2024/02/26 05:53:54;;;;;;;5.47;2.63;;;4.60;99.90;;;;;;5036987;28;20183;-52
2024/02/26 05:56:23;;;;;;;4.63;2.60;;;4.60;99.90;;;;;;5049868;28;20214;-54
2024/02/26 05:58:49;;;;;;;4.97;2.00;;;4.60;99.90;;;;;;5041469;28;20190;-52
2024/02/26 06:01:17;;;;;;;3.90;2.10;;;4.60;99.90;;;;;;5041566;28;20199;-53
2024/02/26 06:03:42;;;;;;;4.23;2.00;;;4.60;99.90;;;;;;5050016;28;20623;-51
2024/02/26 06:06:08;;;;;;;4.87;2.37;;;4.60;99.90;;;;;;5049813;28;20274;-52
2024/02/26 06:08:33;;;;;;;4.03;2.00;;;4.60;99.90;;;;;;5033437;28;20661;-51
2024/02/26 06:10:59;;;;;;;3.93;2.23;;;4.60;99.90;;;;;;5049985;28;20182;-52
2024/02/26 06:13:24;;;;;;;4.33;2.10;;;4.60;99.90;;;;;;5047005;28;20559;-57
2024/02/26 06:15:50;;;;;;;4.03;2.13;;;4.50;99.90;;;;;;5043904;28;20244;-52
2024/02/26 06:18:16;;;;;;;4.37;2.10;;;4.60;99.90;;;;;;5041181;28;20191;-53
2024/02/26 06:20:41;;;;;;;3.63;2.10;;;4.60;99.90;;;;;;5041420;28;20674;-51
2024/02/26 06:23:07;;;;;;;3.53;2.40;;;4.60;99.90;;;;;;5053268;28;20257;-56
2024/02/26 06:25:32;;;;;;;7.33;2.70;;;4.60;99.90;;;;;;5049572;28;20190;-55
2024/02/26 06:27:58;;;;;;;5.70;2.90;;;4.60;99.90;;;;;;5049456;28;20278;-54
2024/02/26 06:30:24;;;;;;;4.73;2.30;;;4.60;99.90;;;;;;5032763;28;20215;-52
2024/02/26 06:32:49;;;;;;;4.63;2.27;;;4.60;99.90;;;;;;5035383;28;20204;-52
2024/02/26 06:35:15;;;;;;;7.43;2.53;;;4.60;99.90;;;;;;5037808;28;20192;-54
2024/02/26 06:37:40;;;;;;;7.53;2.50;;;4.60;99.90;;;;;;5037254;28;20660;-56
2024/02/26 06:40:06;;;;;;;6.63;2.87;;;4.60;99.90;;;;;;5045867;28;20187;-56
2024/02/26 06:42:33;;;;;;;7.03;3.03;;;4.70;99.90;;;;;;5045147;28;20211;-55
2024/02/26 06:44:58;;;;;;;8.50;2.70;;;4.70;99.90;;;;;;5042322;28;20261;-56
2024/02/26 06:47:24;;;;;;;6.03;2.50;;;4.70;99.90;;;;;;5039129;28;20615;-53
2024/02/26 06:49:49;;;;;;;7.20;2.97;;;4.70;99.90;;;;;;5034496;28;20211;-55
2024/02/26 06:52:15;;;;;;;4.43;2.80;;;4.70;99.90;;;;;;5045034;28;20272;-52
2024/02/26 06:54:41;;;;;;;7.67;3.50;;;4.80;99.90;;;;;;5037341;28;20551;-56
2024/02/26 06:57:07;;;;;;;7.57;3.57;;;4.80;99.90;;;;;;5044863;28;20666;-52
2024/02/26 06:59:32;;;;;;;8.00;3.70;;;4.80;99.90;;;;;;5048621;28;20193;-51
2024/02/26 07:01:58;;;;;;;7.17;3.90;;;4.80;99.90;;;;;;5048653;28;20214;-52
2024/02/26 07:04:23;;;;;;;6.17;2.83;;;4.80;99.90;;;;;;5048658;28;20197;-51
2024/02/26 07:06:49;;;;;;;4.73;2.60;;;4.70;99.90;;;;;;5048522;28;20240;-56
2024/02/26 07:09:15;;;;;;;6.23;2.40;;;4.70;99.90;;;;;;5048007;28;20309;-56
2024/02/26 07:11:44;;;;;;;7.03;2.50;;;4.70;99.90;;;;;;5039753;28;20206;-59
2024/02/26 07:14:10;;;;;;;5.07;2.00;;;4.80;99.90;;;;;;5039774;28;20191;-55
2024/02/26 07:16:36;;;;;;;5.63;2.43;;;4.80;99.90;;;;;;5036575;28;20278;-54
2024/02/26 07:19:02;;;;;;;6.47;2.53;;;4.90;99.90;;;;;;5043841;28;20270;-51
2024/02/26 07:21:28;;;;;;;6.30;2.40;;;4.90;99.90;;;;;;5040219;28;20297;-51
2024/02/26 07:23:53;;;;;;;9.77;3.10;;;5.00;99.90;;;;;;5033570;28;20227;-53
2024/02/26 07:26:19;;;;;;;7.07;3.13;;;5.00;99.90;;;;;;5054464;28;20211;-56
2024/02/26 07:28:45;;;;;;;4.73;2.87;;;5.00;99.90;;;;;;5039750;28;20202;-52
2024/02/26 07:31:11;;;;;;;4.27;2.60;;;4.90;99.90;;;;;;5048416;28;20187;-55
2024/02/26 07:33:36;;;;;;;9.07;4.10;;;5.00;99.90;;;;;;5044205;28;20643;-54
2024/02/26 07:36:02;;;;;;;11.40;3.20;;;5.00;99.90;;;;;;5043890;28;20683;-53
2024/02/26 07:38:28;;;;;;;7.57;3.43;;;5.00;99.90;;;;;;5047727;28;20201;-55
2024/02/26 07:40:53;;;;;;;6.10;2.53;;;5.10;99.90;;;;;;5048320;28;20223;-55
2024/02/26 07:43:19;;;;;;;4.80;2.63;;;5.10;99.90;;;;;;5048482;28;20604;-57
2024/02/26 07:45:44;;;;;;;5.80;2.60;;;5.20;99.90;;;;;;5036835;28;20179;-51
2024/02/26 07:48:10;;;;;;;4.77;2.70;;;5.30;99.90;;;;;;5059722;28;20195;-52
2024/02/26 07:50:36;;;;;;;7.63;2.57;;;5.30;99.90;;;;;;5051577;28;20268;-51
2024/02/26 07:53:02;;;;;;;4.80;2.47;;;5.30;99.90;;;;;;5043394;28;20281;-51
2024/02/26 07:55:27;;;;;;;7.40;2.77;;;5.30;99.90;;;;;;5051492;28;20191;-54
2024/02/26 07:57:53;;;;;;;5.83;2.70;;;5.40;99.90;;;;;;5050946;28;20256;-53
2024/02/26 08:00:19;;;;;;;4.43;2.70;;;5.40;99.90;;;;;;5049886;28;20249;-54
2024/02/26 08:02:45;;;;;;;9.73;3.33;;;5.40;99.90;;;;;;5037014;28;20211;-57
2024/02/26 08:05:10;;;;;;;9.37;3.87;;;5.40;99.90;;;;;;5059687;28;20179;-55
2024/02/26 08:07:36;;;;;;;7.57;3.77;;;5.40;99.90;;;;;;5051179;28;20680;-55
2024/02/26 08:10:02;;;;;;;8.50;3.77;;;5.40;99.90;;;;;;5051280;28;20532;-56
2024/02/26 08:12:27;;;;;;;6.93;3.70;;;5.50;99.90;;;;;;5051028;28;20321;-51
2024/02/26 08:14:53;;;;;;;7.63;3.47;;;5.50;99.90;;;;;;5042758;28;20213;-54
2024/02/26 08:17:18;;;;;;;8.03;2.90;;;5.60;99.90;;;;;;5042367;28;20496;-54
2024/02/26 08:19:44;;;;;;;4.23;2.43;;;5.70;99.90;;;;;;5038178;28;20761;-55
2024/02/26 08:22:15;;;;;;;10.03;3.00;;;5.70;99.90;;;;;;5031007;28;20686;-52
2024/02/26 08:24:44;;;;;;;5.93;2.83;;;5.80;99.90;;;;;;5038443;28;20195;-51
2024/02/26 08:27:10;;;;;;;8.50;4.50;;;5.80;99.90;;;;;;5046653;28;20317;-54
2024/02/26 08:29:35;;;;;;;8.33;4.03;;;5.90;99.90;;;;;;5043060;28;20294;-54
2024/02/26 08:32:01;;;;;;;9.87;4.13;;;5.90;99.90;;;;;;5052522;28;20279;-56
2024/02/26 08:34:27;;;;;;;11.33;4.10;;;6.00;99.90;;;;;;5041721;28;20191;-53
2024/02/26 08:36:52;;;;;;;9.27;4.50;;;6.00;99.90;;;;;;5050969;28;20191;-53
2024/02/26 08:39:18;;;;;;;9.27;5.70;;;5.90;99.90;;;;;;5043832;28;20191;-55
2024/02/26 08:41:44;;;;;;;7.23;3.17;;;6.00;99.90;;;;;;5057432;28;20729;-54
2024/02/26 08:44:10;;;;;;;6.13;3.17;;;6.00;99.90;;;;;;5058883;28;20217;-53
2024/02/26 08:46:36;;;;;;;6.43;2.97;;;6.10;99.90;;;;;;5050598;28;20222;-51
2024/02/26 08:49:02;;;;;;;9.13;3.20;;;6.10;99.90;;;;;;5050245;28;20230;-51
2024/02/26 08:51:27;;;;;;;13.50;2.70;;;6.20;99.90;;;;;;5050495;28;20191;-52
2024/02/26 08:53:53;;;;;;;5.53;3.07;;;6.30;99.90;;;;;;5050372;28;20258;-55
2024/02/26 08:56:21;;;;;;;6.27;2.80;;;6.30;99.90;;;;;;5050375;28;20186;-52
2024/02/26 08:58:48;;;;;;;7.13;3.00;;;6.40;99.90;;;;;;5050276;28;20191;-55
2024/02/26 09:01:15;;;;;;;10.97;5.10;;;6.40;99.90;;;;;;5047370;28;20193;-50
2024/02/26 09:03:40;;;;;;;15.93;5.73;;;6.40;99.90;;;;;;5046782;28;20631;-50
2024/02/26 09:06:06;;;;;;;8.37;3.50;;;6.30;99.90;;;;;;5051707;28;20694;-55
2024/02/26 09:08:32;;;;;;;6.13;3.30;;;6.40;99.90;;;;;;5051459;28;20171;-52
2024/02/26 09:10:58;;;;;;;5.33;2.90;;;6.30;99.90;;;;;;5050017;28;20209;-57
2024/02/26 09:13:23;;;;;;;7.20;3.07;;;6.30;99.90;;;;;;5043797;28;20207;-52
2024/02/26 09:15:49;;;;;;;5.13;2.87;;;6.40;99.90;;;;;;5061730;28;20733;-54
2024/02/26 09:18:14;;;;;;;6.87;2.87;;;6.50;99.90;;;;;;5053301;28;20245;-52
2024/02/26 09:20:41;;;;;;;8.90;3.60;;;6.60;99.90;;;;;;5039557;28;20193;-51
2024/02/26 09:23:06;;;;;;;6.53;3.33;;;6.50;99.90;;;;;;5058308;28;20206;-53
2024/02/26 09:25:33;;;;;;;4.83;2.93;;;6.50;99.90;;;;;;5049767;28;20274;-54
2024/02/26 09:27:59;;;;;;;7.37;3.07;;;6.50;99.90;;;;;;5056899;28;20236;-53
2024/02/26 09:30:24;;;;;;;6.17;2.80;;;6.60;99.90;;;;;;5053134;28;20218;-54
2024/02/26 09:32:50;;;;;;;7.80;3.17;;;6.60;99.90;;;;;;5061686;28;20200;-56
2024/02/26 09:35:16;;;;;;;6.13;3.10;;;6.70;99.90;;;;;;5061595;28;20270;-52
2024/02/26 09:37:43;;;;;;;5.97;3.47;;;6.70;99.90;;;;;;5057243;28;20176;-56
2024/02/26 09:40:11;;;;;;;9.77;4.43;;;6.70;99.90;;;;;;5057941;28;20565;-52
2024/02/26 09:42:41;;;;;;;7.87;3.87;;;6.80;99.90;;;;;;5057670;28;20207;-57
2024/02/26 09:45:12;;;;;;;11.57;4.43;;;6.90;99.90;;;;;;5049491;28;20248;-55
2024/02/26 09:47:38;;;;;;;6.77;3.20;;;6.90;99.90;;;;;;5041559;28;20187;-52
2024/02/26 09:50:09;;;;;;;6.60;2.77;;;7.00;99.90;;;;;;5049827;28;20206;-55
2024/02/26 09:52:37;;;;;;;5.43;2.93;;;7.00;99.90;;;;;;5052772;28;20306;-57
2024/02/26 09:55:04;;;;;;;10.97;3.60;;;7.00;99.90;;;;;;5061143;28;20175;-51
2024/02/26 09:57:31;;;;;;;7.07;3.40;;;7.10;99.90;;;;;;5057774;28;20191;-56
2024/02/26 10:00:03;;;;;;;9.03;3.67;;;7.10;99.90;;;;;;5055837;28;20190;-53
2024/02/26 10:02:31;;;;;;;7.90;3.33;;;7.00;99.90;;;;;;5050023;28;20582;-56
2024/02/26 10:05:01;;;;;;;7.83;3.70;;;7.20;99.90;;;;;;5048833;28;20195;-54
2024/02/26 10:07:29;;;;;;;9.07;4.00;;;7.30;99.90;;;;;;5057499;28;20182;-56
2024/02/26 10:09:55;;;;;;;7.03;3.50;;;7.50;99.90;;;;;;5055609;28;20255;-54
2024/02/26 10:12:23;;;;;;;8.07;3.50;;;7.60;99.90;;;;;;5059209;28;20678;-52
2024/02/26 10:14:48;;;;;;;9.57;3.60;;;7.70;99.90;;;;;;5049321;28;20672;-52
2024/02/26 10:17:14;;;;;;;5.43;3.00;;;7.80;99.90;;;;;;5048861;28;20667;-56
2024/02/26 10:19:40;;;;;;;6.93;3.10;;;7.80;99.90;;;;;;5049049;28;20191;-56
2024/02/26 10:22:06;;;;;;;7.13;3.47;;;7.90;99.90;;;;;;5049095;28;20305;-56
2024/02/26 10:24:32;;;;;;;7.63;3.73;;;7.90;99.90;;;;;;5051917;28;20669;-52
2024/02/26 10:26:57;;;;;;;6.73;3.80;;;7.90;99.90;;;;;;5054265;28;20615;-53
2024/02/26 10:29:26;;;;;;;10.53;3.70;;;7.90;99.90;;;;;;5048757;28;20254;-53
2024/02/26 10:31:52;;;;;;;8.87;3.83;;;8.00;99.90;;;;;;5048709;28;20207;-52
2024/02/26 10:34:18;;;;;;;8.50;3.53;;;8.00;99.90;;;;;;5048949;28;20240;-56
2024/02/26 10:36:44;;;;;;;6.67;3.60;;;8.00;99.90;;;;;;5048789;28;20191;-54
2024/02/26 10:39:12;;;;;;;8.30;4.03;;;8.10;99.90;;;;;;5048692;28;20195;-51
2024/02/26 10:41:38;;;;;;;8.27;3.53;;;8.10;99.90;;;;;;5040730;28;20772;-51
2024/02/26 10:44:04;;;;;;;7.27;3.43;;;8.10;99.90;;;;;;5048552;28;20249;-52
2024/02/26 10:46:30;;;;;;;7.90;4.30;;;7.90;99.90;;;;;;5056813;28;20185;-54
2024/02/26 10:48:56;;;;;;;13.30;4.93;;;8.00;99.90;;;;;;5048232;28;20175;-55
2024/02/26 10:51:30;;;;;;;7.70;4.37;;;8.00;99.90;;;;;;5048432;28;20258;-53
2024/02/26 10:54:00;;;;;;;6.93;4.03;;;8.20;99.90;;;;;;5048597;28;20211;-53
2024/02/26 10:56:29;;;;;;;10.70;4.00;;;8.30;99.90;;;;;;5048675;28;20179;-56
2024/02/26 10:58:56;;;;;;;7.27;3.93;;;8.50;99.90;;;;;;5054518;28;20170;-56
2024/02/26 11:01:25;;;;;;;8.77;4.30;;;8.60;99.90;;;;;;5058369;28;20702;-53
2024/02/26 11:03:51;;;;;;;7.77;3.87;;;8.60;99.90;;;;;;5048578;28;20190;-57
2024/02/26 11:06:20;;;;;;;10.47;4.27;;;8.70;99.90;;;;;;5048355;28;20236;-55
2024/02/26 11:08:49;;;;;;;8.03;4.40;;;8.70;99.90;;;;;;5048021;28;20175;-57
2024/02/26 11:11:15;;;;;;;8.37;4.43;;;8.80;99.90;;;;;;5056621;28;20590;-55
2024/02/26 11:13:45;;;;;;;6.57;3.40;;;8.60;99.90;;;;;;5048387;28;20186;-57
2024/02/26 11:16:11;;;;;;;5.63;3.17;;;8.60;99.90;;;;;;5048573;28;20209;-54
2024/02/26 11:18:39;;;;;;;6.17;3.53;;;8.70;99.90;;;;;;5051316;28;20244;-55
2024/02/26 11:21:08;;;;;;;8.63;4.10;;;8.90;99.90;;;;;;5059990;28;20220;-56
2024/02/26 11:23:36;;;;;;;6.77;3.60;;;9.10;99.90;;;;;;5063783;28;20220;-52
2024/02/26 11:26:03;;;;;;;5.13;3.10;;;9.20;99.90;;;;;;5057057;28;20655;-50
2024/02/26 11:28:31;;;;;;;9.77;4.07;;;9.10;99.90;;;;;;5051644;28;20183;-51
2024/02/26 11:30:59;;;;;;;7.70;3.67;;;9.20;99.90;;;;;;5058110;28;20226;-52
2024/02/26 11:33:25;;;;;;;9.43;4.20;;;9.30;99.90;;;;;;5053580;28;20267;-51
2024/02/26 11:35:51;;;;;;;11.60;5.00;;;9.40;99.90;;;;;;5057219;28;20244;-52
2024/02/26 11:38:25;;;;;;;30.33;6.07;;;9.30;99.90;;;;;;5054064;28;20202;-53
2024/02/26 11:40:52;;;;;;;9.07;3.67;;;9.30;99.90;;;;;;5051856;28;20187;-55
2024/02/26 11:43:18;;;;;;;5.97;3.23;;;9.40;99.90;;;;;;5051916;28;20226;-51
2024/02/26 11:45:47;;;;;;;5.67;3.33;;;9.40;99.90;;;;;;5051665;28;20187;-56
2024/02/26 11:48:14;;;;;;;7.30;3.53;;;9.40;99.90;;;;;;5052006;28;20249;-52
2024/02/26 11:50:41;;;;;;;6.03;3.40;;;9.10;99.90;;;;;;5047036;28;20294;-53
2024/02/26 11:53:31;;;;;;;14.57;5.00;;;8.80;99.90;;;;;;5039753;28;20261;-52
2024/02/26 11:56:22;;;;;;;8.10;3.70;;;8.80;99.90;;;;;;5032381;28;20191;-53
2024/02/26 11:58:53;;;;;;;8.43;4.00;;;8.60;99.90;;;;;;5037713;28;20271;-52
2024/02/26 12:01:37;;;;;;;6.70;3.80;;;8.70;99.90;;;;;;5040570;28;20201;-52
2024/02/26 12:04:28;;;;;;;4.93;2.80;;;8.60;99.90;;;;;;5042486;28;20171;-51
2024/02/26 12:06:56;;;;;;;5.30;3.17;;;8.60;99.90;;;;;;5035225;28;20381;-53
2024/02/26 12:09:36;;;;;;;11.43;4.10;;;8.50;99.90;;;;;;5049659;28;20207;-53
2024/02/26 12:12:03;;;;;;;7.80;3.90;;;8.50;99.90;;;;;;5031319;28;20191;-52
2024/02/26 12:14:29;;;;;;;6.23;3.40;;;8.40;99.90;;;;;;5041367;28;20245;-53
2024/02/26 12:16:56;;;;;;;7.97;3.93;;;8.50;99.90;;;;;;5045362;28;20792;-52
2024/02/26 12:19:22;;;;;;;5.67;2.97;;;8.50;99.90;;;;;;5038879;28;20195;-51
2024/02/26 12:21:53;;;;;;;7.70;3.60;;;8.50;99.90;;;;;;5031165;28;20277;-54
2024/02/26 12:24:20;;;;;;;8.20;3.80;;;8.60;99.90;;;;;;5040218;28;20188;-57
2024/02/26 12:26:45;;;;;;;8.13;4.27;;;8.60;99.90;;;;;;5042517;28;20268;-53
2024/02/26 12:29:12;;;;;;;7.33;3.63;;;8.60;99.90;;;;;;5041756;28;20206;-54
2024/02/26 12:31:39;;;;;;;9.97;4.97;;;8.50;99.90;;;;;;5030912;28;20206;-51
2024/02/26 12:34:05;;;;;;;12.77;5.80;;;8.60;99.90;;;;;;5039294;28;20592;-57
2024/02/26 12:36:31;;;;;;;9.67;5.40;;;8.70;99.90;;;;;;5038790;28;20269;-55
2024/02/26 12:38:56;;;;;;;9.13;5.07;;;8.90;99.90;;;;;;5038509;28;20485;-54
2024/02/26 12:41:23;;;;;;;8.67;4.13;;;9.00;99.90;;;;;;5030395;28;20283;-51
2024/02/26 12:43:49;;;;;;;7.13;4.13;;;9.30;99.90;;;;;;5030489;28;20195;-57
2024/02/26 12:46:16;;;;;;;7.50;3.97;;;9.40;99.90;;;;;;5038787;28;20187;-54
2024/02/26 12:48:46;;;;;;;7.20;4.33;;;9.40;99.90;;;;;;5034298;28;20190;-51